createdAt,value
2018-05-04T00:02:08.013Z,12.70
2018-05-04T00:04:35.505Z,12.60
2018-05-04T00:07:03.021Z,12.60
2018-05-04T00:09:30.509Z,12.60
2018-05-04T00:11:57.993Z,12.50
2018-05-04T00:14:25.497Z,12.50
2018-05-04T00:16:53.029Z,12.40
2018-05-04T00:19:20.537Z,12.40
2018-05-04T00:21:48.022Z,12.40
2018-05-04T00:24:15.537Z,12.30
2018-05-04T00:26:43.049Z,12.30
2018-05-04T00:29:10.559Z,12.30
2018-05-04T00:31:38.099Z,12.20
2018-05-04T00:34:05.609Z,12.20
2018-05-04T00:36:33.102Z,12.20
2018-05-04T00:39:00.621Z,12.10
2018-05-04T00:41:30.911Z,12.00
2018-05-04T00:43:58.422Z,12.00
2018-05-04T00:46:25.913Z,12.00
2018-05-04T00:48:53.437Z,12.00
2018-05-04T00:51:20.925Z,11.90
2018-05-04T00:54:00.113Z,11.90
2018-05-04T00:56:27.643Z,11.80
2018-05-04T00:58:55.173Z,11.80
2018-05-04T01:01:23.456Z,11.70
2018-05-04T01:03:50.969Z,11.70
2018-05-04T01:06:18.494Z,11.70
2018-05-04T01:08:46.013Z,11.70
2018-05-04T01:11:13.516Z,11.60
2018-05-04T01:13:41.032Z,11.50
2018-05-04T01:16:08.590Z,11.50
2018-05-04T01:18:36.103Z,11.50
2018-05-04T01:21:03.621Z,11.40
2018-05-04T01:23:31.133Z,11.40
2018-05-04T01:25:58.628Z,11.40
2018-05-04T01:28:26.166Z,11.40
2018-05-04T01:30:53.656Z,11.40
2018-05-04T01:33:21.169Z,11.40
2018-05-04T01:35:48.662Z,11.40
2018-05-04T01:38:16.189Z,11.30
2018-05-04T01:40:43.677Z,11.30
2018-05-04T01:43:11.195Z,11.40
2018-05-04T01:45:38.685Z,11.40
2018-05-04T01:48:06.214Z,11.30
2018-05-04T01:50:33.714Z,11.30
2018-05-04T01:53:01.209Z,11.30
2018-05-04T01:55:28.725Z,11.30
2018-05-04T01:57:56.219Z,11.30
2018-05-04T02:00:23.743Z,11.30
2018-05-04T02:02:51.240Z,11.30
2018-05-04T02:05:19.522Z,11.30
2018-05-04T02:07:47.137Z,11.20
2018-05-04T02:10:14.666Z,11.30
2018-05-04T02:12:42.153Z,11.30
2018-05-04T02:15:09.661Z,11.30
2018-05-04T02:17:37.163Z,11.20
2018-05-04T02:20:04.668Z,11.20
2018-05-04T02:22:32.170Z,11.20
2018-05-04T02:24:59.703Z,11.20
2018-05-04T02:27:27.957Z,11.00
2018-05-04T02:29:55.473Z,11.00
2018-05-04T02:32:22.977Z,11.00
2018-05-04T02:34:50.493Z,10.90
2018-05-04T02:37:17.998Z,10.90
2018-05-04T02:39:45.566Z,10.90
2018-05-04T02:42:13.058Z,10.80
2018-05-04T02:44:40.570Z,10.80
2018-05-04T02:47:08.072Z,10.80
2018-05-04T02:49:35.582Z,10.70
2018-05-04T02:52:03.080Z,10.70
2018-05-04T02:54:30.619Z,10.70
2018-05-04T02:56:58.106Z,10.70
2018-05-04T02:59:25.633Z,10.70
2018-05-04T03:01:53.202Z,10.60
2018-05-04T03:04:20.733Z,10.60
2018-05-04T03:06:48.223Z,10.60
2018-05-04T03:09:16.550Z,10.50
2018-05-04T03:11:44.069Z,10.50
2018-05-04T03:14:11.577Z,10.50
2018-05-04T03:16:39.071Z,10.50
2018-05-04T03:19:06.584Z,10.40
2018-05-04T03:21:34.098Z,10.40
2018-05-04T03:24:01.596Z,10.30
2018-05-04T03:26:29.154Z,10.30
2018-05-04T03:28:56.649Z,10.30
2018-05-04T03:31:24.178Z,10.20
2018-05-04T03:33:51.668Z,10.20
2018-05-04T03:36:19.177Z,10.20
2018-05-04T03:38:47.517Z,10.20
2018-05-04T03:41:15.026Z,10.20
2018-05-04T03:43:42.533Z,10.20
2018-05-04T03:46:10.049Z,10.20
2018-05-04T03:48:37.548Z,10.20
2018-05-04T03:51:05.065Z,10.20
2018-05-04T03:53:32.617Z,10.20
2018-05-04T03:56:00.155Z,10.20
2018-05-04T03:58:39.489Z,10.20
2018-05-04T04:01:18.850Z,10.20
2018-05-04T04:04:06.992Z,10.20
2018-05-04T04:06:34.509Z,10.20
2018-05-04T04:09:02.005Z,10.20
2018-05-04T04:11:29.521Z,10.10
2018-05-04T04:13:57.009Z,10.20
2018-05-04T04:16:24.518Z,10.20
2018-05-04T04:18:52.009Z,10.10
2018-05-04T04:21:19.538Z,10.10
2018-05-04T04:23:47.033Z,10.10
2018-05-04T04:26:14.558Z,10.10
2018-05-04T04:28:42.055Z,10.10
2018-05-04T04:31:09.573Z,10.20
2018-05-04T04:33:37.059Z,10.20
2018-05-04T04:36:04.582Z,10.20
2018-05-04T04:38:32.094Z,10.20
2018-05-04T04:41:00.378Z,10.20
2018-05-04T04:43:28.637Z,10.30
2018-05-04T04:45:56.152Z,10.20
2018-05-04T04:48:23.641Z,10.30
2018-05-04T04:50:51.156Z,10.30
2018-05-04T04:53:18.648Z,10.30
2018-05-04T04:55:46.176Z,10.30
2018-05-04T04:58:13.683Z,10.30
2018-05-04T05:00:41.206Z,10.30
2018-05-04T05:03:09.499Z,10.40
2018-05-04T05:05:37.005Z,10.40
2018-05-04T05:08:04.494Z,10.40
2018-05-04T05:10:32.094Z,10.50
2018-05-04T05:13:00.374Z,10.50
2018-05-04T05:15:27.894Z,10.50
2018-05-04T05:17:55.404Z,10.50
2018-05-04T05:20:22.889Z,10.60
2018-05-04T05:22:50.417Z,10.60
2018-05-04T05:25:17.909Z,10.70
2018-05-04T05:27:45.433Z,10.70
2018-05-04T05:30:12.942Z,10.70
2018-05-04T05:32:40.461Z,10.80
2018-05-04T05:35:08.003Z,10.80
2018-05-04T05:37:35.523Z,10.80
2018-05-04T05:40:03.042Z,10.90
2018-05-04T05:42:30.632Z,11.00
2018-05-04T05:44:58.077Z,11.10
2018-05-04T05:47:25.591Z,11.20
2018-05-04T05:49:53.101Z,11.20
2018-05-04T05:52:20.622Z,11.30
2018-05-04T05:54:48.116Z,11.30
2018-05-04T05:57:16.423Z,11.30
2018-05-04T05:59:43.913Z,11.20
2018-05-04T06:02:11.421Z,11.30
2018-05-04T06:04:38.950Z,11.30
2018-05-04T06:07:06.472Z,11.40
2018-05-04T06:09:33.970Z,11.40
2018-05-04T06:12:01.501Z,11.50
2018-05-04T06:14:29.003Z,11.50
2018-05-04T06:16:56.521Z,11.70
2018-05-04T06:19:24.009Z,11.80
2018-05-04T06:21:51.535Z,11.90
2018-05-04T06:24:19.020Z,12.00
2018-05-04T06:26:46.547Z,12.10
2018-05-04T06:29:14.047Z,12.10
2018-05-04T06:31:41.565Z,12.10
2018-05-04T06:34:09.052Z,12.10
2018-05-04T06:36:36.623Z,12.20
2018-05-04T06:39:04.126Z,12.20
2018-05-04T06:41:31.629Z,12.30
2018-05-04T06:43:59.117Z,12.30
2018-05-04T06:46:26.675Z,12.30
2018-05-04T06:48:54.165Z,12.20
2018-05-04T06:51:21.653Z,12.30
2018-05-04T06:53:49.191Z,12.40
2018-05-04T06:56:16.681Z,12.50
2018-05-04T06:58:44.194Z,12.70
2018-05-04T07:01:11.689Z,12.80
2018-05-04T07:03:39.206Z,13.00
2018-05-04T07:06:06.704Z,13.00
2018-05-04T07:08:34.217Z,13.00
2018-05-04T07:11:01.713Z,13.00
2018-05-04T07:13:29.216Z,13.00
2018-05-04T07:15:56.713Z,13.10
2018-05-04T07:18:24.251Z,13.10
2018-05-04T07:20:51.737Z,13.20
2018-05-04T07:23:19.252Z,13.30
2018-05-04T07:25:46.744Z,13.30
2018-05-04T07:28:14.257Z,13.40
2018-05-04T07:30:41.757Z,13.40
2018-05-04T07:33:09.273Z,13.40
2018-05-04T07:35:36.770Z,13.50
2018-05-04T07:38:06.864Z,13.70
2018-05-04T07:40:35.112Z,13.70
2018-05-04T07:43:02.635Z,13.70
2018-05-04T07:45:30.133Z,13.70
2018-05-04T07:47:57.707Z,13.60
2018-05-04T07:50:25.197Z,13.70
2018-05-04T07:52:52.708Z,13.70
2018-05-04T07:55:20.274Z,13.90
2018-05-04T07:57:47.712Z,14.00
2018-05-04T08:00:15.200Z,13.90
2018-05-04T08:02:42.709Z,13.90
2018-05-04T08:05:10.213Z,13.90
2018-05-04T08:07:37.778Z,13.80
2018-05-04T08:10:05.334Z,13.90
2018-05-04T08:12:33.609Z,14.10
2018-05-04T08:15:01.092Z,14.00
2018-05-04T08:17:28.612Z,14.10
2018-05-04T08:19:56.097Z,14.10
2018-05-04T08:22:23.593Z,14.10
2018-05-04T08:24:51.921Z,14.20
2018-05-04T08:27:19.446Z,14.20
2018-05-04T08:29:47.718Z,14.30
2018-05-04T08:32:15.213Z,14.20
2018-05-04T08:34:42.727Z,14.30
2018-05-04T08:37:10.219Z,14.40
2018-05-04T08:39:37.754Z,14.40
2018-05-04T08:42:05.245Z,14.50
2018-05-04T08:44:32.758Z,14.50
2018-05-04T08:47:00.304Z,14.60
2018-05-04T08:49:27.818Z,14.70
2018-05-04T08:51:55.307Z,14.80
2018-05-04T08:54:22.872Z,15.10
2018-05-04T08:56:51.085Z,15.50
2018-05-04T08:59:18.592Z,15.40
2018-05-04T09:01:46.081Z,15.60
2018-05-04T09:04:13.589Z,15.80
2018-05-04T09:06:41.078Z,15.90
2018-05-04T09:09:08.586Z,16.10
2018-05-04T09:11:36.077Z,16.20
2018-05-04T09:14:03.611Z,16.30
2018-05-04T09:16:31.101Z,16.30
2018-05-04T09:18:58.627Z,16.30
2018-05-04T09:21:26.177Z,16.30
2018-05-04T09:23:53.694Z,16.30
2018-05-04T09:26:21.185Z,16.40
2018-05-04T09:28:48.689Z,16.60
2018-05-04T09:31:16.184Z,16.50
2018-05-04T09:33:43.695Z,16.60
2018-05-04T09:36:11.189Z,16.70
2018-05-04T09:38:38.692Z,16.80
2018-05-04T09:41:06.194Z,16.80
2018-05-04T09:43:33.797Z,16.90
2018-05-04T09:46:02.061Z,17.00
2018-05-04T09:48:29.660Z,16.90
2018-05-04T09:50:57.078Z,17.10
2018-05-04T09:53:24.599Z,17.20
2018-05-04T09:55:52.116Z,17.30
2018-05-04T09:58:19.590Z,17.40
2018-05-04T10:00:47.109Z,17.40
2018-05-04T10:03:14.609Z,17.40
2018-05-04T10:05:42.124Z,17.40
2018-05-04T10:08:09.642Z,17.50
2018-05-04T10:10:37.173Z,17.50
2018-05-04T10:13:04.734Z,17.50
2018-05-04T10:15:32.245Z,17.60
2018-05-04T10:17:59.729Z,17.80
2018-05-04T10:20:27.250Z,17.90
2018-05-04T10:22:54.750Z,17.90
2018-05-04T10:25:22.256Z,18.00
2018-05-04T10:27:49.748Z,17.90
2018-05-04T10:30:17.262Z,18.00
2018-05-04T10:32:44.757Z,18.00
2018-05-04T10:35:13.034Z,18.10
2018-05-04T10:37:40.553Z,18.00
2018-05-04T10:40:08.066Z,18.20
2018-05-04T10:42:35.557Z,18.30
2018-05-04T10:45:03.138Z,18.20
2018-05-04T10:47:30.569Z,18.20
2018-05-04T10:49:58.093Z,18.30
2018-05-04T10:52:25.597Z,18.30
2018-05-04T10:54:53.118Z,18.30
2018-05-04T10:57:20.609Z,18.50
2018-05-04T10:59:48.121Z,18.50
2018-05-04T11:02:16.381Z,18.70
2018-05-04T11:04:43.890Z,18.60
2018-05-04T11:07:11.386Z,18.60
2018-05-04T11:09:38.902Z,18.60
2018-05-04T11:12:06.402Z,18.60
2018-05-04T11:14:33.914Z,18.50
2018-05-04T11:17:01.401Z,18.50
2018-05-04T11:19:28.930Z,18.40
2018-05-04T11:21:56.429Z,18.40
2018-05-04T11:24:23.948Z,18.50
2018-05-04T11:26:51.442Z,18.50
2018-05-04T11:29:18.955Z,18.50
2018-05-04T11:31:46.445Z,18.50
2018-05-04T11:34:13.957Z,18.50
2018-05-04T11:36:41.446Z,18.50
2018-05-04T11:39:08.947Z,18.60
2018-05-04T11:41:36.465Z,18.60
2018-05-04T11:44:03.963Z,18.70
2018-05-04T11:46:31.478Z,18.70
2018-05-04T11:48:58.971Z,18.70
2018-05-04T11:51:26.496Z,18.70
2018-05-04T11:53:53.989Z,18.70
2018-05-04T11:56:21.500Z,18.70
2018-05-04T11:58:48.993Z,18.70
2018-05-04T12:01:16.514Z,18.90
2018-05-04T12:03:44.009Z,18.90
2018-05-04T12:06:11.529Z,18.90
2018-05-04T12:08:39.017Z,18.90
2018-05-04T12:11:06.533Z,19.00
2018-05-04T12:13:34.022Z,19.10
2018-05-04T12:16:01.538Z,19.10
2018-05-04T12:18:29.030Z,19.10
2018-05-04T12:20:56.575Z,19.10
2018-05-04T12:23:24.068Z,19.10
2018-05-04T12:25:51.597Z,19.10
2018-05-04T12:28:19.100Z,19.10
2018-05-04T12:30:46.609Z,19.20
2018-05-04T12:33:14.686Z,19.50
2018-05-04T12:35:42.204Z,19.70
2018-05-04T12:38:09.698Z,19.90
2018-05-04T12:40:37.212Z,19.90
2018-05-04T12:43:04.705Z,19.90
2018-05-04T12:45:32.226Z,20.00
2018-05-04T12:47:59.717Z,20.10
2018-05-04T12:50:27.244Z,20.10
2018-05-04T12:52:54.733Z,20.10
2018-05-04T12:55:22.241Z,20.00
2018-05-04T12:57:49.728Z,20.00
2018-05-04T13:00:17.240Z,20.20
2018-05-04T13:02:44.732Z,20.20
2018-05-04T13:05:12.246Z,20.20
2018-05-04T13:07:39.742Z,20.30
2018-05-04T13:10:07.242Z,20.30
2018-05-04T13:12:34.769Z,20.40
2018-05-04T13:15:02.266Z,20.40
2018-05-04T13:17:29.784Z,20.50
2018-05-04T13:19:57.282Z,20.60
2018-05-04T13:22:24.800Z,20.60
2018-05-04T13:24:52.299Z,20.70
2018-05-04T13:27:19.814Z,20.70
2018-05-04T13:29:47.316Z,20.60
2018-05-04T13:32:14.841Z,20.50
2018-05-04T13:34:42.330Z,20.60
2018-05-04T13:37:09.844Z,20.80
2018-05-04T13:39:38.098Z,20.90
2018-05-04T13:42:05.611Z,20.80
2018-05-04T13:44:33.139Z,20.90
2018-05-04T13:47:00.614Z,20.90
2018-05-04T13:49:28.105Z,20.90
2018-05-04T13:51:55.631Z,20.90
2018-05-04T13:54:23.179Z,20.90
2018-05-04T13:56:50.692Z,20.90
2018-05-04T13:59:18.195Z,20.80
2018-05-04T14:01:45.716Z,20.80
2018-05-04T14:04:13.214Z,20.70
2018-05-04T14:06:40.725Z,20.70
2018-05-04T14:09:08.217Z,20.70
2018-05-04T14:11:35.750Z,20.70
2018-05-04T14:14:03.245Z,20.70
2018-05-04T14:16:30.757Z,20.60
2018-05-04T14:18:58.248Z,20.60
2018-05-04T14:21:25.761Z,20.50
2018-05-04T14:23:53.257Z,20.60
2018-05-04T14:26:20.779Z,20.60
2018-05-04T14:28:48.282Z,20.60
2018-05-04T14:31:15.802Z,20.60
2018-05-04T14:33:44.069Z,20.60
2018-05-04T14:36:11.576Z,20.60
2018-05-04T14:38:39.081Z,20.60
2018-05-04T14:41:07.373Z,20.70
2018-05-04T14:43:34.859Z,20.60
2018-05-04T14:46:02.365Z,20.60
2018-05-04T14:48:29.886Z,20.60
2018-05-04T14:50:57.372Z,20.60
2018-05-04T14:53:24.885Z,20.50
2018-05-04T14:55:53.149Z,20.30
2018-05-04T14:58:20.672Z,20.30
2018-05-04T15:00:48.181Z,20.30
2018-05-04T15:03:15.690Z,20.30
2018-05-04T15:05:43.186Z,20.30
2018-05-04T15:08:10.702Z,20.30
2018-05-04T15:10:38.197Z,20.30
2018-05-04T15:13:05.701Z,20.30
2018-05-04T15:15:33.197Z,20.30
2018-05-04T15:18:00.722Z,20.30
2018-05-04T15:20:28.216Z,20.30
2018-05-04T15:22:55.729Z,20.30
2018-05-04T15:25:23.214Z,20.30
2018-05-04T15:27:50.730Z,20.30
2018-05-04T15:30:18.217Z,20.30
2018-05-04T15:32:45.725Z,20.20
2018-05-04T15:35:13.981Z,20.20
2018-05-04T15:37:41.493Z,20.20
2018-05-04T15:40:08.986Z,20.20
2018-05-04T15:42:36.493Z,20.20
2018-05-04T15:45:03.981Z,20.20
2018-05-04T15:47:31.491Z,20.20
2018-05-04T15:50:13.857Z,20.20
2018-05-04T15:52:41.366Z,20.20
2018-05-04T15:55:08.867Z,20.20
2018-05-04T15:57:36.377Z,20.10
2018-05-04T16:00:03.959Z,20.10
2018-05-04T16:02:31.393Z,20.10
2018-05-04T16:04:58.885Z,20.10
2018-05-04T16:07:26.397Z,20.00
2018-05-04T16:09:53.894Z,20.00
2018-05-04T16:12:22.183Z,19.90
2018-05-04T16:14:49.699Z,19.80
2018-05-04T16:17:17.189Z,19.80
2018-05-04T16:19:44.702Z,19.80
2018-05-04T16:22:12.206Z,19.90
2018-05-04T16:24:39.726Z,19.90
2018-05-04T16:27:07.216Z,19.90
2018-05-04T16:29:34.726Z,19.90
2018-05-04T16:32:02.264Z,19.90
2018-05-04T16:34:29.729Z,19.90
2018-05-04T16:36:57.985Z,19.80
2018-05-04T16:39:25.493Z,19.70
2018-05-04T16:41:52.993Z,19.80
2018-05-04T16:44:20.508Z,19.70
2018-05-04T16:46:53.551Z,19.70
2018-05-04T16:49:26.510Z,19.60
2018-05-04T16:51:54.001Z,19.60
2018-05-04T16:54:21.512Z,19.60
2018-05-04T16:56:49.007Z,19.60
2018-05-04T16:59:16.530Z,19.60
2018-05-04T17:01:44.020Z,19.60
2018-05-04T17:04:11.538Z,19.60
2018-05-04T17:06:39.028Z,19.60
2018-05-04T17:09:06.598Z,19.60
2018-05-04T17:11:34.061Z,19.50
2018-05-04T17:14:01.572Z,19.50
2018-05-04T17:16:29.066Z,19.50
2018-05-04T17:18:56.572Z,19.40
2018-05-04T17:21:24.070Z,19.40
2018-05-04T17:23:51.583Z,19.30
2018-05-04T17:26:19.069Z,19.30
2018-05-04T17:28:46.616Z,19.20
2018-05-04T17:31:14.879Z,19.10
2018-05-04T17:33:42.390Z,19.10
2018-05-04T17:36:09.880Z,19.10
2018-05-04T17:38:37.380Z,19.00
2018-05-04T17:41:04.885Z,19.00
2018-05-04T17:43:32.397Z,19.00
2018-05-04T17:45:59.885Z,19.00
2018-05-04T17:48:27.403Z,18.90
2018-05-04T17:50:54.881Z,18.80
2018-05-04T17:53:22.369Z,18.80
2018-05-04T17:55:49.893Z,18.70
2018-05-04T17:58:17.377Z,18.60
2018-05-04T18:00:44.894Z,18.50
2018-05-04T18:03:12.452Z,18.50
2018-05-04T18:05:39.905Z,18.40
2018-05-04T18:08:07.390Z,18.30
2018-05-04T18:10:34.907Z,18.30
2018-05-04T18:13:02.409Z,18.20
2018-05-04T18:15:29.918Z,18.20
2018-05-04T18:17:57.402Z,18.10
2018-05-04T18:20:24.906Z,18.00
2018-05-04T18:22:52.403Z,17.90
2018-05-04T18:25:19.910Z,17.90
2018-05-04T18:27:47.393Z,17.80
2018-05-04T18:30:14.903Z,17.80
2018-05-04T18:32:42.401Z,17.70
2018-05-04T18:35:09.915Z,17.60
2018-05-04T18:37:37.400Z,17.60
2018-05-04T18:40:04.914Z,17.50
2018-05-04T18:42:32.401Z,17.40
2018-05-04T18:44:59.925Z,17.40
2018-05-04T18:47:27.425Z,17.30
2018-05-04T18:49:55.736Z,17.30
2018-05-04T18:52:23.234Z,17.20
2018-05-04T18:54:50.760Z,17.20
2018-05-04T18:57:18.460Z,17.20
2018-05-04T18:59:46.007Z,17.10
2018-05-04T19:02:28.375Z,17.10
2018-05-04T19:04:56.653Z,17.00
2018-05-04T19:07:24.906Z,17.00
2018-05-04T19:09:52.411Z,16.90
2018-05-04T19:12:19.897Z,16.90
2018-05-04T19:14:47.426Z,16.90
2018-05-04T19:17:14.914Z,16.80
2018-05-04T19:19:42.417Z,16.80
2018-05-04T19:22:09.901Z,16.70
2018-05-04T19:24:37.409Z,16.60
2018-05-04T19:27:04.888Z,16.60
2018-05-04T19:29:32.377Z,16.50
2018-05-04T19:31:59.894Z,16.50
2018-05-04T19:34:27.491Z,16.50
2018-05-04T19:36:54.918Z,16.40
2018-05-04T19:39:22.408Z,16.40
2018-05-04T19:41:49.913Z,16.30
2018-05-04T19:44:17.405Z,16.20
2018-05-04T19:46:44.917Z,16.20
2018-05-04T19:49:12.430Z,16.10
2018-05-04T19:51:39.938Z,16.10
2018-05-04T19:54:07.428Z,16.00
2018-05-04T19:56:34.943Z,16.00
2018-05-04T19:59:02.441Z,15.90
2018-05-04T20:01:30.038Z,15.90
2018-05-04T20:03:57.654Z,15.90
2018-05-04T20:06:25.161Z,15.80
2018-05-04T20:08:52.669Z,15.80
2018-05-04T20:11:20.193Z,15.70
2018-05-04T20:13:47.729Z,15.70
2018-05-04T20:16:16.299Z,15.60
2018-05-04T20:18:43.916Z,15.60
2018-05-04T20:21:11.437Z,15.60
2018-05-04T20:23:38.945Z,15.50
2018-05-04T20:26:06.486Z,15.50
2018-05-04T20:28:34.102Z,15.50
2018-05-04T20:31:01.626Z,15.40
2018-05-04T20:33:29.118Z,15.40
2018-05-04T20:35:56.623Z,15.30
2018-05-04T20:38:24.109Z,15.30
2018-05-04T20:40:51.629Z,15.30
2018-05-04T20:43:19.113Z,15.20
2018-05-04T20:45:46.621Z,15.20
2018-05-04T20:48:14.122Z,15.10
2018-05-04T20:50:41.630Z,15.10
2018-05-04T20:53:09.128Z,15.00
2018-05-04T20:55:36.645Z,15.00
2018-05-04T20:58:04.129Z,15.00
2018-05-04T21:00:31.613Z,14.90
2018-05-04T21:02:59.125Z,14.90
2018-05-04T21:05:26.604Z,14.90
2018-05-04T21:07:54.134Z,14.90
2018-05-04T21:10:21.633Z,14.80
2018-05-04T21:12:49.133Z,14.80
2018-05-04T21:15:16.630Z,14.80
2018-05-04T21:17:44.137Z,14.70
2018-05-04T21:20:11.630Z,14.70
2018-05-04T21:22:39.145Z,14.70
2018-05-04T21:25:06.650Z,14.70
2018-05-04T21:27:34.162Z,14.60
2018-05-04T21:30:01.641Z,14.60
2018-05-04T21:32:29.152Z,14.60
2018-05-04T21:34:56.634Z,14.60
2018-05-04T21:37:24.143Z,14.50
2018-05-04T21:39:51.634Z,14.50
2018-05-04T21:42:26.740Z,14.50
2018-05-04T21:44:54.258Z,14.50
2018-05-04T21:47:21.746Z,14.50
2018-05-04T21:49:49.229Z,14.50
2018-05-04T21:52:16.746Z,14.40
2018-05-04T21:54:44.228Z,14.40
2018-05-04T21:57:11.737Z,14.40
2018-05-04T21:59:39.229Z,14.40
2018-05-04T22:02:06.745Z,14.40
2018-05-04T22:04:34.235Z,14.30
2018-05-04T22:07:01.751Z,14.30
2018-05-04T22:09:29.232Z,14.30
2018-05-04T22:11:56.739Z,14.30
2018-05-04T22:14:24.262Z,14.20
2018-05-04T22:16:51.794Z,14.20
2018-05-04T22:19:19.281Z,14.20
2018-05-04T22:21:46.777Z,14.20
2018-05-04T22:24:14.327Z,14.20
2018-05-04T22:26:41.818Z,14.10
2018-05-04T22:29:09.302Z,14.10
2018-05-04T22:31:36.814Z,14.00
2018-05-04T22:34:04.290Z,14.00
2018-05-04T22:36:31.774Z,14.00
2018-05-04T22:38:59.289Z,14.00
2018-05-04T22:41:26.775Z,13.90
2018-05-04T22:43:54.285Z,13.80
2018-05-04T22:46:22.542Z,13.70
2018-05-04T22:48:50.047Z,13.70
2018-05-04T22:51:17.529Z,13.70
2018-05-04T22:53:45.026Z,13.70
2018-05-04T22:56:12.545Z,13.60
2018-05-04T22:58:40.042Z,13.60
2018-05-04T23:01:07.528Z,13.40
2018-05-04T23:03:35.806Z,13.30
2018-05-04T23:06:04.078Z,13.30
2018-05-04T23:08:32.358Z,13.20
2018-05-04T23:11:00.617Z,13.20
2018-05-04T23:13:28.120Z,13.10
2018-05-04T23:15:55.609Z,13.10
2018-05-04T23:18:23.113Z,13.10
2018-05-04T23:20:51.864Z,13.00
2018-05-04T23:23:19.317Z,13.00
2018-05-04T23:25:46.801Z,13.00
2018-05-04T23:28:15.090Z,12.90
2018-05-04T23:30:43.375Z,12.90
2018-05-04T23:33:10.873Z,12.90
2018-05-04T23:35:38.354Z,12.90
2018-05-04T23:38:05.857Z,12.90
2018-05-04T23:40:34.544Z,12.90
2018-05-04T23:43:03.326Z,12.90
2018-05-04T23:45:31.571Z,12.80
2018-05-04T23:47:59.069Z,12.80
2018-05-04T23:50:27.322Z,12.80
2018-05-04T23:52:54.841Z,12.70
2018-05-04T23:55:22.325Z,12.80
2018-05-04T23:57:49.825Z,12.80
